Jackson Hole, Wyoming
Current Conditions -  °F | °C
As of 3:15 AM on Thursday 23 Oct 2014 (Local Time) from KJAC Reporting Station
Broken Clouds Broken Clouds  
Wind Chill: -4°   Ceiling: 7500
Heat Index: -1°   Visibility: 10mi
Dew Point: -3°   Wind: 6mph
Humidity: 86%   Direction: 10°N
Pressure: 30.21"   Gusts: NA
Location:  43.48°N, 110.761°W
Report Text: KJAC 230915Z AUTO 01005KT 10SM BKN075 BKN095 M01/M03 A3021 RMK AO1
Loading
Personal Weather Stations






























Interactive Weather Map
Tropical Storm Tracking
New forecast layout! Learn more

10-Day Weather Forecast

Advertisements
Track Severe Weather on mobile